sensor_id;sensor_type;location;lat;lon;timestamp;pressure;altitude;pressure_sealevel;temperature;humidity
28310;BME280;15571;50.974;13.936;2024-01-27T00:01:22;101256.16;;;7.48;100.00
28310;BME280;15571;50.974;13.936;2024-01-27T00:04:26;101265.56;;;7.42;100.00
28310;BME280;15571;50.974;13.936;2024-01-27T00:07:27;101265.94;;;7.22;100.00
28310;BME280;15571;50.974;13.936;2024-01-27T00:10:29;101274.94;;;7.35;100.00
28310;BME280;15571;50.974;13.936;2024-01-27T00:13:35;101276.81;;;7.41;100.00
28310;BME280;15571;50.974;13.936;2024-01-27T00:16:39;101276.59;;;7.31;100.00
28310;BME280;15571;50.974;13.936;2024-01-27T00:19:42;101281.19;;;7.42;100.00
28310;BME280;15571;50.974;13.936;2024-01-27T00:22:46;101282.28;;;7.15;100.00
28310;BME280;15571;50.974;13.936;2024-01-27T00:25:48;101285.28;;;7.32;100.00
28310;BME280;15571;50.974;13.936;2024-01-27T00:28:50;101274.22;;;7.41;100.00
28310;BME280;15571;50.974;13.936;2024-01-27T00:31:52;101287.88;;;7.32;100.00
28310;BME280;15571;50.974;13.936;2024-01-27T00:34:56;101273.19;;;7.34;100.00
28310;BME280;15571;50.974;13.936;2024-01-27T00:37:58;101280.25;;;7.40;100.00
28310;BME280;15571;50.974;13.936;2024-01-27T00:41:00;101277.22;;;7.21;100.00
28310;BME280;15571;50.974;13.936;2024-01-27T00:44:02;101286.56;;;7.14;100.00
28310;BME280;15571;50.974;13.936;2024-01-27T00:47:04;101288.25;;;7.12;100.00
28310;BME280;15571;50.974;13.936;2024-01-27T00:50:09;101301.03;;;7.03;100.00
28310;BME280;15571;50.974;13.936;2024-01-27T00:53:12;101293.63;;;7.19;100.00
28310;BME280;15571;50.974;13.936;2024-01-27T00:56:14;101285.84;;;7.20;100.00
28310;BME280;15571;50.974;13.936;2024-01-27T00:59:16;101283.94;;;7.13;100.00
28310;BME280;15571;50.974;13.936;2024-01-27T01:02:18;101300.91;;;6.98;100.00
28310;BME280;15571;50.974;13.936;2024-01-27T01:05:21;101294.75;;;7.28;100.00
28310;BME280;15571;50.974;13.936;2024-01-27T01:08:26;101310.75;;;7.10;100.00
28310;BME280;15571;50.974;13.936;2024-01-27T01:11:28;101326.31;;;7.07;100.00
28310;BME280;15571;50.974;13.936;2024-01-27T01:14:30;101335.59;;;6.97;100.00
28310;BME280;15571;50.974;13.936;2024-01-27T01:17:35;101329.06;;;7.12;100.00
28310;BME280;15571;50.974;13.936;2024-01-27T01:20:38;101327.97;;;7.04;100.00
28310;BME280;15571;50.974;13.936;2024-01-27T01:23:41;101331.97;;;7.24;100.00
28310;BME280;15571;50.974;13.936;2024-01-27T01:26:44;101327.59;;;6.90;100.00
28310;BME280;15571;50.974;13.936;2024-01-27T01:29:46;101341.81;;;7.03;100.00
28310;BME280;15571;50.974;13.936;2024-01-27T01:32:48;101331.75;;;6.83;100.00
28310;BME280;15571;50.974;13.936;2024-01-27T01:35:52;101329.97;;;6.82;100.00
28310;BME280;15571;50.974;13.936;2024-01-27T01:38:55;101338.63;;;6.81;100.00
28310;BME280;15571;50.974;13.936;2024-01-27T01:41:57;101345.50;;;6.79;100.00
28310;BME280;15571;50.974;13.936;2024-01-27T01:44:59;101344.66;;;6.80;100.00
28310;BME280;15571;50.974;13.936;2024-01-27T01:48:03;101351.06;;;6.91;100.00
28310;BME280;15571;50.974;13.936;2024-01-27T01:51:07;101352.25;;;6.72;100.00
28310;BME280;15571;50.974;13.936;2024-01-27T01:54:13;101362.19;;;6.85;100.00
28310;BME280;15571;50.974;13.936;2024-01-27T01:57:15;101371.53;;;6.79;100.00
28310;BME280;15571;50.974;13.936;2024-01-27T02:00:17;101366.84;;;6.97;100.00
28310;BME280;15571;50.974;13.936;2024-01-27T02:03:22;101363.59;;;6.74;100.00
28310;BME280;15571;50.974;13.936;2024-01-27T02:06:25;101370.38;;;6.99;100.00
28310;BME280;15571;50.974;13.936;2024-01-27T02:09:28;101367.22;;;6.79;100.00
28310;BME280;15571;50.974;13.936;2024-01-27T02:12:30;101379.16;;;6.73;100.00
28310;BME280;15571;50.974;13.936;2024-01-27T02:15:32;101369.69;;;6.75;100.00
28310;BME280;15571;50.974;13.936;2024-01-27T02:18:34;101375.31;;;6.90;100.00
28310;BME280;15571;50.974;13.936;2024-01-27T02:21:37;101363.59;;;7.05;100.00
28310;BME280;15571;50.974;13.936;2024-01-27T02:24:41;101371.41;;;7.05;100.00
28310;BME280;15571;50.974;13.936;2024-01-27T02:27:43;101371.53;;;7.11;100.00
28310;BME280;15571;50.974;13.936;2024-01-27T02:30:45;101372.63;;;7.19;100.00
28310;BME280;15571;50.974;13.936;2024-01-27T02:33:47;101374.41;;;7.20;100.00
28310;BME280;15571;50.974;13.936;2024-01-27T02:36:49;101371.66;;;7.14;100.00
28310;BME280;15571;50.974;13.936;2024-01-27T02:39:52;101381.47;;;7.24;100.00
28310;BME280;15571;50.974;13.936;2024-01-27T02:42:54;101382.91;;;7.13;100.00
28310;BME280;15571;50.974;13.936;2024-01-27T02:45:56;101379.44;;;7.14;100.00
28310;BME280;15571;50.974;13.936;2024-01-27T02:48:58;101388.63;;;7.01;100.00
28310;BME280;15571;50.974;13.936;2024-01-27T02:52:00;101397.38;;;7.03;100.00
28310;BME280;15571;50.974;13.936;2024-01-27T02:55:05;101396.66;;;7.09;100.00
28310;BME280;15571;50.974;13.936;2024-01-27T02:58:08;101399.16;;;7.06;100.00
28310;BME280;15571;50.974;13.936;2024-01-27T03:01:10;101399.00;;;6.99;100.00
28310;BME280;15571;50.974;13.936;2024-01-27T03:04:12;101391.91;;;6.94;100.00
28310;BME280;15571;50.974;13.936;2024-01-27T03:07:18;101410.00;;;6.89;100.00
28310;BME280;15571;50.974;13.936;2024-01-27T03:10:21;101407.91;;;6.76;100.00
28310;BME280;15571;50.974;13.936;2024-01-27T03:13:23;101411.50;;;6.81;100.00
28310;BME280;15571;50.974;13.936;2024-01-27T03:16:25;101407.16;;;6.81;100.00
28310;BME280;15571;50.974;13.936;2024-01-27T03:19:28;101417.84;;;6.91;100.00
28310;BME280;15571;50.974;13.936;2024-01-27T03:22:30;101426.84;;;6.72;100.00
28310;BME280;15571;50.974;13.936;2024-01-27T03:25:36;101415.69;;;6.76;100.00
28310;BME280;15571;50.974;13.936;2024-01-27T03:28:41;101426.41;;;6.87;100.00
28310;BME280;15571;50.974;13.936;2024-01-27T03:31:43;101437.97;;;6.96;100.00
28310;BME280;15571;50.974;13.936;2024-01-27T03:34:45;101430.88;;;6.62;100.00
28310;BME280;15571;50.974;13.936;2024-01-27T03:37:47;101439.28;;;6.82;100.00
28310;BME280;15571;50.974;13.936;2024-01-27T03:40:51;101439.81;;;7.00;100.00
28310;BME280;15571;50.974;13.936;2024-01-27T03:43:53;101446.13;;;7.09;100.00
28310;BME280;15571;50.974;13.936;2024-01-27T03:46:55;101445.13;;;7.04;100.00
28310;BME280;15571;50.974;13.936;2024-01-27T03:49:57;101446.75;;;6.71;100.00
28310;BME280;15571;50.974;13.936;2024-01-27T03:52:58;101449.81;;;6.85;100.00
28310;BME280;15571;50.974;13.936;2024-01-27T03:56:02;101452.31;;;6.82;100.00
28310;BME280;15571;50.974;13.936;2024-01-27T03:59:07;101455.53;;;7.04;100.00
28310;BME280;15571;50.974;13.936;2024-01-27T04:02:09;101451.47;;;6.83;100.00
28310;BME280;15571;50.974;13.936;2024-01-27T04:05:11;101462.47;;;6.74;100.00
28310;BME280;15571;50.974;13.936;2024-01-27T04:08:13;101465.59;;;6.91;100.00
28310;BME280;15571;50.974;13.936;2024-01-27T04:11:20;101468.50;;;7.02;100.00
28310;BME280;15571;50.974;13.936;2024-01-27T04:14:22;101474.59;;;7.03;100.00
28310;BME280;15571;50.974;13.936;2024-01-27T04:17:24;101474.34;;;6.93;100.00
28310;BME280;15571;50.974;13.936;2024-01-27T04:20:26;101475.41;;;7.00;100.00
28310;BME280;15571;50.974;13.936;2024-01-27T04:23:28;101471.75;;;6.95;100.00
28310;BME280;15571;50.974;13.936;2024-01-27T04:26:32;101477.13;;;7.01;100.00
28310;BME280;15571;50.974;13.936;2024-01-27T04:29:36;101482.22;;;6.67;100.00
28310;BME280;15571;50.974;13.936;2024-01-27T04:32:38;101486.13;;;6.82;100.00
28310;BME280;15571;50.974;13.936;2024-01-27T04:35:40;101477.41;;;6.80;100.00
28310;BME280;15571;50.974;13.936;2024-01-27T04:38:45;101477.22;;;6.74;100.00
28310;BME280;15571;50.974;13.936;2024-01-27T04:41:48;101474.81;;;6.81;100.00
28310;BME280;15571;50.974;13.936;2024-01-27T04:44:50;101463.03;;;6.93;100.00
28310;BME280;15571;50.974;13.936;2024-01-27T04:47:54;101465.59;;;6.62;100.00
28310;BME280;15571;50.974;13.936;2024-01-27T04:50:56;101456.94;;;6.92;100.00
28310;BME280;15571;50.974;13.936;2024-01-27T04:53:58;101461.81;;;6.52;100.00
28310;BME280;15571;50.974;13.936;2024-01-27T04:57:02;101462.22;;;6.66;100.00
28310;BME280;15571;50.974;13.936;2024-01-27T05:00:04;101469.03;;;6.61;100.00
28310;BME280;15571;50.974;13.936;2024-01-27T05:03:11;101479.44;;;6.61;100.00
28310;BME280;15571;50.974;13.936;2024-01-27T05:06:14;101471.47;;;6.55;100.00
28310;BME280;15571;50.974;13.936;2024-01-27T05:09:16;101492.38;;;6.31;100.00
28310;BME280;15571;50.974;13.936;2024-01-27T05:12:20;101504.13;;;6.19;100.00
28310;BME280;15571;50.974;13.936;2024-01-27T05:15:22;101516.06;;;6.40;100.00
28310;BME280;15571;50.974;13.936;2024-01-27T05:18:24;101505.31;;;6.57;100.00
28310;BME280;15571;50.974;13.936;2024-01-27T05:21:26;101520.53;;;6.44;100.00
28310;BME280;15571;50.974;13.936;2024-01-27T05:24:27;101518.66;;;6.67;100.00
28310;BME280;15571;50.974;13.936;2024-01-27T05:27:31;101530.78;;;6.67;100.00
28310;BME280;15571;50.974;13.936;2024-01-27T05:30:33;101541.38;;;6.73;100.00
28310;BME280;15571;50.974;13.936;2024-01-27T05:33:35;101546.91;;;6.55;100.00
28310;BME280;15571;50.974;13.936;2024-01-27T05:36:37;101541.06;;;6.62;100.00
28310;BME280;15571;50.974;13.936;2024-01-27T05:39:39;101546.75;;;6.50;100.00
28310;BME280;15571;50.974;13.936;2024-01-27T05:42:43;101547.31;;;6.42;100.00
28310;BME280;15571;50.974;13.936;2024-01-27T05:45:45;101551.16;;;6.53;100.00
28310;BME280;15571;50.974;13.936;2024-01-27T05:48:50;101548.28;;;6.44;100.00
28310;BME280;15571;50.974;13.936;2024-01-27T05:51:55;101551.53;;;6.38;100.00
28310;BME280;15571;50.974;13.936;2024-01-27T05:54:57;101558.13;;;6.54;100.00
28310;BME280;15571;50.974;13.936;2024-01-27T05:58:00;101554.63;;;6.53;100.00
28310;BME280;15571;50.974;13.936;2024-01-27T06:01:02;101569.53;;;6.58;100.00
28310;BME280;15571;50.974;13.936;2024-01-27T06:04:04;101570.50;;;6.61;100.00
28310;BME280;15571;50.974;13.936;2024-01-27T06:07:06;101562.13;;;6.70;100.00
28310;BME280;15571;50.974;13.936;2024-01-27T06:10:08;101575.72;;;6.61;100.00
28310;BME280;15571;50.974;13.936;2024-01-27T06:13:12;101573.81;;;6.57;100.00
28310;BME280;15571;50.974;13.936;2024-01-27T06:16:14;101573.53;;;6.48;100.00
28310;BME280;15571;50.974;13.936;2024-01-27T06:19:16;101572.50;;;6.43;100.00
28310;BME280;15571;50.974;13.936;2024-01-27T06:22:18;101581.56;;;6.54;100.00
28310;BME280;15571;50.974;13.936;2024-01-27T06:25:22;101577.06;;;6.50;100.00
28310;BME280;15571;50.974;13.936;2024-01-27T06:28:25;101587.22;;;6.68;100.00
28310;BME280;15571;50.974;13.936;2024-01-27T06:31:30;101587.63;;;6.54;100.00
28310;BME280;15571;50.974;13.936;2024-01-27T06:34:32;101599.03;;;6.32;100.00
28310;BME280;15571;50.974;13.936;2024-01-27T06:37:34;101602.34;;;6.28;100.00
28310;BME280;15571;50.974;13.936;2024-01-27T06:40:39;101597.41;;;6.62;100.00
28310;BME280;15571;50.974;13.936;2024-01-27T06:43:42;101602.09;;;6.46;100.00
28310;BME280;15571;50.974;13.936;2024-01-27T06:46:44;101602.25;;;6.51;100.00
28310;BME280;15571;50.974;13.936;2024-01-27T06:49:50;101606.94;;;6.61;100.00
28310;BME280;15571;50.974;13.936;2024-01-27T06:52:52;101610.47;;;6.63;100.00
28310;BME280;15571;50.974;13.936;2024-01-27T06:55:54;101620.47;;;6.51;100.00
28310;BME280;15571;50.974;13.936;2024-01-27T06:58:57;101614.53;;;6.55;100.00
28310;BME280;15571;50.974;13.936;2024-01-27T07:01:59;101622.69;;;6.66;100.00
28310;BME280;15571;50.974;13.936;2024-01-27T07:05:01;101615.16;;;6.74;100.00
28310;BME280;15571;50.974;13.936;2024-01-27T07:08:03;101626.63;;;6.53;100.00
28310;BME280;15571;50.974;13.936;2024-01-27T07:11:07;101637.09;;;6.82;100.00
28310;BME280;15571;50.974;13.936;2024-01-27T07:14:11;101640.91;;;6.66;100.00
28310;BME280;15571;50.974;13.936;2024-01-27T07:17:15;101641.03;;;6.69;100.00
28310;BME280;15571;50.974;13.936;2024-01-27T07:20:20;101639.09;;;6.63;100.00
28310;BME280;15571;50.974;13.936;2024-01-27T07:23:23;101644.06;;;6.57;100.00
28310;BME280;15571;50.974;13.936;2024-01-27T07:26:27;101658.94;;;6.60;100.00
28310;BME280;15571;50.974;13.936;2024-01-27T07:29:31;101659.16;;;6.67;100.00
28310;BME280;15571;50.974;13.936;2024-01-27T07:32:33;101661.97;;;6.48;100.00
28310;BME280;15571;50.974;13.936;2024-01-27T07:35:35;101659.16;;;6.67;100.00
28310;BME280;15571;50.974;13.936;2024-01-27T07:38:37;101668.41;;;6.58;100.00
28310;BME280;15571;50.974;13.936;2024-01-27T07:41:39;101668.28;;;6.54;100.00
28310;BME280;15571;50.974;13.936;2024-01-27T07:44:42;101665.16;;;6.65;100.00
28310;BME280;15571;50.974;13.936;2024-01-27T07:47:44;101664.28;;;6.64;100.00
28310;BME280;15571;50.974;13.936;2024-01-27T07:50:46;101666.44;;;6.78;100.00
28310;BME280;15571;50.974;13.936;2024-01-27T07:53:49;101661.50;;;6.85;100.00
28310;BME280;15571;50.974;13.936;2024-01-27T07:56:51;101663.13;;;6.82;100.00
28310;BME280;15571;50.974;13.936;2024-01-27T07:59:55;101667.69;;;6.89;100.00
28310;BME280;15571;50.974;13.936;2024-01-27T08:02:56;101669.31;;;6.85;100.00
28310;BME280;15571;50.974;13.936;2024-01-27T08:05:58;101681.91;;;6.73;100.00
28310;BME280;15571;50.974;13.936;2024-01-27T08:09:01;101677.38;;;6.93;100.00
28310;BME280;15571;50.974;13.936;2024-01-27T08:12:04;101680.75;;;6.91;100.00
28310;BME280;15571;50.974;13.936;2024-01-27T08:15:08;101690.03;;;6.82;100.00
28310;BME280;15571;50.974;13.936;2024-01-27T08:18:10;101689.63;;;6.96;100.00
28310;BME280;15571;50.974;13.936;2024-01-27T08:21:12;101678.66;;;7.06;100.00
28310;BME280;15571;50.974;13.936;2024-01-27T08:24:14;101695.94;;;7.04;100.00
28310;BME280;15571;50.974;13.936;2024-01-27T08:27:16;101699.38;;;7.03;100.00
28310;BME280;15571;50.974;13.936;2024-01-27T08:30:19;101694.72;;;7.20;100.00
28310;BME280;15571;50.974;13.936;2024-01-27T08:33:21;101702.97;;;7.07;100.00
28310;BME280;15571;50.974;13.936;2024-01-27T08:36:23;101706.19;;;6.98;100.00
28310;BME280;15571;50.974;13.936;2024-01-27T08:39:25;101712.38;;;7.01;100.00
28310;BME280;15571;50.974;13.936;2024-01-27T08:42:30;101719.53;;;7.09;100.00
28310;BME280;15571;50.974;13.936;2024-01-27T08:45:38;101730.19;;;7.15;100.00
28310;BME280;15571;50.974;13.936;2024-01-27T08:48:40;101730.78;;;7.34;100.00
28310;BME280;15571;50.974;13.936;2024-01-27T08:51:42;101734.66;;;6.93;100.00
28310;BME280;15571;50.974;13.936;2024-01-27T08:54:44;101724.53;;;6.77;100.00
28310;BME280;15571;50.974;13.936;2024-01-27T08:57:46;101733.38;;;6.80;100.00
28310;BME280;15571;50.974;13.936;2024-01-27T09:00:49;101730.16;;;6.89;100.00
28310;BME280;15571;50.974;13.936;2024-01-27T09:03:51;101746.09;;;6.73;100.00
28310;BME280;15571;50.974;13.936;2024-01-27T09:06:55;101741.22;;;6.82;100.00
28310;BME280;15571;50.974;13.936;2024-01-27T09:09:57;101748.06;;;6.80;100.00
28310;BME280;15571;50.974;13.936;2024-01-27T09:13:02;101750.06;;;6.87;100.00
28310;BME280;15571;50.974;13.936;2024-01-27T09:16:05;101762.56;;;6.97;100.00
28310;BME280;15571;50.974;13.936;2024-01-27T09:19:12;101775.06;;;6.82;100.00
28310;BME280;15571;50.974;13.936;2024-01-27T09:22:14;101763.38;;;6.70;100.00
28310;BME280;15571;50.974;13.936;2024-01-27T09:25:16;101757.13;;;7.17;100.00
28310;BME280;15571;50.974;13.936;2024-01-27T09:28:19;101746.19;;;7.27;100.00
28310;BME280;15571;50.974;13.936;2024-01-27T09:31:22;101742.63;;;7.25;100.00
28310;BME280;15571;50.974;13.936;2024-01-27T09:34:25;101766.44;;;7.36;100.00
28310;BME280;15571;50.974;13.936;2024-01-27T09:37:28;101774.59;;;7.47;100.00
28310;BME280;15571;50.974;13.936;2024-01-27T09:40:33;101763.31;;;7.46;100.00
28310;BME280;15571;50.974;13.936;2024-01-27T09:43:37;101761.34;;;7.39;100.00
28310;BME280;15571;50.974;13.936;2024-01-27T09:46:43;101765.72;;;7.14;100.00
28310;BME280;15571;50.974;13.936;2024-01-27T09:49:48;101757.25;;;7.20;100.00
28310;BME280;15571;50.974;13.936;2024-01-27T09:52:51;101751.50;;;7.30;100.00
28310;BME280;15571;50.974;13.936;2024-01-27T09:55:53;101760.84;;;7.51;100.00
28310;BME280;15571;50.974;13.936;2024-01-27T09:58:57;101743.97;;;7.67;100.00
28310;BME280;15571;50.974;13.936;2024-01-27T10:02:01;101763.88;;;7.38;100.00
28310;BME280;15571;50.974;13.936;2024-01-27T10:05:04;101766.53;;;7.12;100.00
28310;BME280;15571;50.974;13.936;2024-01-27T10:08:07;101752.88;;;7.19;100.00
28310;BME280;15571;50.974;13.936;2024-01-27T10:11:09;101761.00;;;7.56;100.00
28310;BME280;15571;50.974;13.936;2024-01-27T10:14:11;101758.19;;;7.22;100.00
28310;BME280;15571;50.974;13.936;2024-01-27T10:17:19;101752.66;;;7.68;100.00
28310;BME280;15571;50.974;13.936;2024-01-27T10:20:28;101747.56;;;7.71;100.00
28310;BME280;15571;50.974;13.936;2024-01-27T10:23:30;101748.78;;;7.82;100.00
28310;BME280;15571;50.974;13.936;2024-01-27T10:26:32;101745.34;;;7.83;100.00
28310;BME280;15571;50.974;13.936;2024-01-27T10:29:35;101755.97;;;7.91;100.00
28310;BME280;15571;50.974;13.936;2024-01-27T10:32:38;101757.34;;;7.79;100.00
28310;BME280;15571;50.974;13.936;2024-01-27T10:35:40;101781.06;;;7.60;100.00
28310;BME280;15571;50.974;13.936;2024-01-27T10:38:42;101764.47;;;7.56;100.00
28310;BME280;15571;50.974;13.936;2024-01-27T10:41:44;101769.28;;;7.71;100.00
28310;BME280;15571;50.974;13.936;2024-01-27T10:44:49;101767.75;;;8.07;100.00
28310;BME280;15571;50.974;13.936;2024-01-27T10:47:53;101786.94;;;8.09;100.00
28310;BME280;15571;50.974;13.936;2024-01-27T10:50:58;101782.16;;;7.67;100.00
28310;BME280;15571;50.974;13.936;2024-01-27T10:54:01;101790.09;;;7.70;100.00
28310;BME280;15571;50.974;13.936;2024-01-27T10:57:03;101782.09;;;7.63;100.00
28310;BME280;15571;50.974;13.936;2024-01-27T11:00:05;101805.44;;;7.60;100.00
28310;BME280;15571;50.974;13.936;2024-01-27T11:03:10;101795.13;;;7.63;100.00
28310;BME280;15571;50.974;13.936;2024-01-27T11:06:12;101789.91;;;7.63;100.00
28310;BME280;15571;50.974;13.936;2024-01-27T11:09:15;101794.25;;;7.64;100.00
28310;BME280;15571;50.974;13.936;2024-01-27T11:12:18;101788.72;;;8.10;100.00
28310;BME280;15571;50.974;13.936;2024-01-27T11:15:21;101805.84;;;8.02;100.00
28310;BME280;15571;50.974;13.936;2024-01-27T11:18:24;101799.78;;;7.74;100.00
28310;BME280;15571;50.974;13.936;2024-01-27T11:21:26;101793.44;;;7.94;100.00
28310;BME280;15571;50.974;13.936;2024-01-27T11:24:28;101801.66;;;8.07;100.00
28310;BME280;15571;50.974;13.936;2024-01-27T11:27:30;101799.84;;;8.04;100.00
28310;BME280;15571;50.974;13.936;2024-01-27T11:30:32;101794.59;;;8.03;100.00
28310;BME280;15571;50.974;13.936;2024-01-27T11:33:44;101802.53;;;7.78;100.00
28310;BME280;15571;50.974;13.936;2024-01-27T11:36:49;101795.78;;;7.85;100.00
28310;BME280;15571;50.974;13.936;2024-01-27T11:40:02;101784.13;;;8.32;100.00
28310;BME280;15571;50.974;13.936;2024-01-27T11:43:08;101785.16;;;8.38;100.00
28310;BME280;15571;50.974;13.936;2024-01-27T11:46:14;101782.16;;;8.24;100.00
28310;BME280;15571;50.974;13.936;2024-01-27T11:49:18;101790.69;;;8.19;100.00
28310;BME280;15571;50.974;13.936;2024-01-27T11:52:20;101780.13;;;8.14;100.00
28310;BME280;15571;50.974;13.936;2024-01-27T11:55:22;101786.16;;;8.42;100.00
28310;BME280;15571;50.974;13.936;2024-01-27T11:58:24;101787.56;;;8.31;100.00
28310;BME280;15571;50.974;13.936;2024-01-27T12:01:26;101773.63;;;8.30;100.00
28310;BME280;15571;50.974;13.936;2024-01-27T12:04:29;101778.97;;;8.35;100.00
28310;BME280;15571;50.974;13.936;2024-01-27T12:07:33;101777.47;;;8.43;100.00
28310;BME280;15571;50.974;13.936;2024-01-27T12:10:37;101778.56;;;8.50;100.00
28310;BME280;15571;50.974;13.936;2024-01-27T12:13:39;101781.16;;;8.48;100.00
28310;BME280;15571;50.974;13.936;2024-01-27T12:16:41;101783.41;;;8.68;100.00
28310;BME280;15571;50.974;13.936;2024-01-27T12:19:47;101794.91;;;8.44;100.00
28310;BME280;15571;50.974;13.936;2024-01-27T12:22:49;101793.72;;;8.62;100.00
28310;BME280;15571;50.974;13.936;2024-01-27T12:25:54;101795.69;;;8.41;100.00
28310;BME280;15571;50.974;13.936;2024-01-27T12:28:59;101798.56;;;8.49;100.00
28310;BME280;15571;50.974;13.936;2024-01-27T12:32:01;101794.28;;;8.51;100.00
28310;BME280;15571;50.974;13.936;2024-01-27T12:35:05;101806.75;;;8.62;100.00
28310;BME280;15571;50.974;13.936;2024-01-27T12:38:07;101797.22;;;8.64;100.00
28310;BME280;15571;50.974;13.936;2024-01-27T12:41:09;101791.84;;;8.57;100.00
28310;BME280;15571;50.974;13.936;2024-01-27T12:44:11;101792.84;;;8.63;100.00
28310;BME280;15571;50.974;13.936;2024-01-27T12:47:13;101795.69;;;8.41;100.00
28310;BME280;15571;50.974;13.936;2024-01-27T12:50:16;101784.84;;;8.56;100.00
28310;BME280;15571;50.974;13.936;2024-01-27T12:53:18;101787.69;;;8.64;100.00
28310;BME280;15571;50.974;13.936;2024-01-27T12:56:20;101785.03;;;8.34;100.00
28310;BME280;15571;50.974;13.936;2024-01-27T12:59:22;101787.13;;;8.46;100.00
28310;BME280;15571;50.974;13.936;2024-01-27T13:02:29;101782.91;;;8.49;100.00
28310;BME280;15571;50.974;13.936;2024-01-27T13:05:33;101788.56;;;8.65;100.00
28310;BME280;15571;50.974;13.936;2024-01-27T13:08:35;101781.88;;;8.75;100.00
28310;BME280;15571;50.974;13.936;2024-01-27T13:11:37;101792.34;;;8.76;100.00
28310;BME280;15571;50.974;13.936;2024-01-27T13:14:39;101801.47;;;8.60;100.00
28310;BME280;15571;50.974;13.936;2024-01-27T13:17:42;101804.56;;;8.77;100.00
28310;BME280;15571;50.974;13.936;2024-01-27T13:20:48;101801.94;;;8.77;100.00
28310;BME280;15571;50.974;13.936;2024-01-27T13:23:50;101807.38;;;8.85;100.00
28310;BME280;15571;50.974;13.936;2024-01-27T13:26:55;101805.75;;;8.88;100.00
28310;BME280;15571;50.974;13.936;2024-01-27T13:29:58;101806.34;;;8.78;100.00
28310;BME280;15571;50.974;13.936;2024-01-27T13:33:00;101807.25;;;8.80;100.00
28310;BME280;15571;50.974;13.936;2024-01-27T13:36:04;101819.88;;;8.65;100.00
28310;BME280;15571;50.974;13.936;2024-01-27T13:39:05;101811.81;;;8.87;100.00
28310;BME280;15571;50.974;13.936;2024-01-27T13:42:08;101817.28;;;8.97;100.00
28310;BME280;15571;50.974;13.936;2024-01-27T13:45:10;101809.47;;;8.98;100.00
28310;BME280;15571;50.974;13.936;2024-01-27T13:48:15;101818.84;;;8.92;100.00
28310;BME280;15571;50.974;13.936;2024-01-27T13:51:21;101817.84;;;8.85;100.00
28310;BME280;15571;50.974;13.936;2024-01-27T13:54:23;101811.91;;;8.91;100.00
28310;BME280;15571;50.974;13.936;2024-01-27T13:57:25;101830.34;;;8.98;100.00
28310;BME280;15571;50.974;13.936;2024-01-27T14:00:27;101810.84;;;8.84;100.00
28310;BME280;15571;50.974;13.936;2024-01-27T14:03:29;101820.84;;;8.68;100.00
28310;BME280;15571;50.974;13.936;2024-01-27T14:06:35;101819.81;;;8.62;100.00
28310;BME280;15571;50.974;13.936;2024-01-27T14:09:40;101817.22;;;8.63;100.00
28310;BME280;15571;50.974;13.936;2024-01-27T14:12:42;101815.47;;;8.62;100.00
28310;BME280;15571;50.974;13.936;2024-01-27T14:15:44;101820.91;;;8.70;100.00
28310;BME280;15571;50.974;13.936;2024-01-27T14:18:52;101811.56;;;8.78;100.00
28310;BME280;15571;50.974;13.936;2024-01-27T14:21:55;101816.78;;;8.78;100.00
28310;BME280;15571;50.974;13.936;2024-01-27T14:24:57;101803.63;;;8.75;100.00
28310;BME280;15571;50.974;13.936;2024-01-27T14:27:59;101805.88;;;8.63;100.00
28310;BME280;15571;50.974;13.936;2024-01-27T14:31:01;101809.56;;;8.69;100.00
28310;BME280;15571;50.974;13.936;2024-01-27T14:34:03;101809.94;;;8.83;100.00
28310;BME280;15571;50.974;13.936;2024-01-27T14:37:06;101818.34;;;8.73;100.00
28310;BME280;15571;50.974;13.936;2024-01-27T14:40:09;101813.72;;;8.63;100.00
28310;BME280;15571;50.974;13.936;2024-01-27T14:43:14;101824.34;;;8.69;100.00
28310;BME280;15571;50.974;13.936;2024-01-27T14:46:23;101821.66;;;8.66;100.00
28310;BME280;15571;50.974;13.936;2024-01-27T14:49:25;101823.31;;;8.64;100.00
28310;BME280;15571;50.974;13.936;2024-01-27T14:52:31;101826.16;;;8.71;100.00
28310;BME280;15571;50.974;13.936;2024-01-27T14:55:34;101828.63;;;8.67;100.00
28310;BME280;15571;50.974;13.936;2024-01-27T14:58:38;101827.69;;;8.63;100.00
28310;BME280;15571;50.974;13.936;2024-01-27T15:01:43;101826.78;;;8.63;100.00
28310;BME280;15571;50.974;13.936;2024-01-27T15:04:54;101832.38;;;8.46;100.00
28310;BME280;15571;50.974;13.936;2024-01-27T15:07:57;101839.66;;;8.56;100.00
28310;BME280;15571;50.974;13.936;2024-01-27T15:11:00;101839.44;;;8.49;100.00
28310;BME280;15571;50.974;13.936;2024-01-27T15:14:02;101847.66;;;8.63;100.00
28310;BME280;15571;50.974;13.936;2024-01-27T15:17:05;101851.13;;;8.62;100.00
28310;BME280;15571;50.974;13.936;2024-01-27T15:20:08;101860.63;;;8.60;100.00
28310;BME280;15571;50.974;13.936;2024-01-27T15:23:12;101862.75;;;8.44;100.00
28310;BME280;15571;50.974;13.936;2024-01-27T15:26:14;101866.59;;;8.55;100.00
28310;BME280;15571;50.974;13.936;2024-01-27T15:29:16;101877.63;;;8.47;100.00
28310;BME280;15571;50.974;13.936;2024-01-27T15:32:18;101881.09;;;8.46;100.00
28310;BME280;15571;50.974;13.936;2024-01-27T15:35:24;101895.66;;;8.39;100.00
28310;BME280;15571;50.974;13.936;2024-01-27T15:38:31;101893.78;;;8.35;100.00
28310;BME280;15571;50.974;13.936;2024-01-27T15:41:36;101900.78;;;8.36;100.00
28310;BME280;15571;50.974;13.936;2024-01-27T15:44:38;101899.25;;;8.43;100.00